Time;durP1;ratioP1;P1;durP2;ratioP2;P2;SDS_P1;SDS_P2;PMS_P1;PMS_P2;Temp;Humidity;BMP_temperature;BMP_pressure;BME280_temperature;BME280_humidity;BME280_pressure;Samples;Min_cycle;Max_cycle;Signal;HPM_P1;HPM_P2
2022/05/04 00:01:42;;;;;;;6.25;4.45;;;14.90;72.50;;;;;;4936537;29;20026;-70
2022/05/04 00:04:08;;;;;;;6.60;4.35;;;14.80;72.40;;;;;;4935227;29;20079;-68
2022/05/04 00:06:33;;;;;;;5.78;3.90;;;14.80;72.30;;;;;;4935398;29;20114;-68
2022/05/04 00:08:59;;;;;;;6.03;4.45;;;14.80;72.40;;;;;;4935239;29;20485;-68
2022/05/04 00:11:24;;;;;;;6.30;4.13;;;14.80;72.40;;;;;;4936404;29;20031;-68
2022/05/04 00:13:50;;;;;;;7.18;4.30;;;14.80;72.40;;;;;;4935370;29;20032;-68
2022/05/04 00:16:15;;;;;;;5.60;4.30;;;14.70;72.60;;;;;;4934905;29;20028;-69
2022/05/04 00:18:41;;;;;;;5.82;4.30;;;14.70;72.80;;;;;;4934846;29;20110;-68
2022/05/04 00:21:07;;;;;;;6.40;4.30;;;14.60;72.90;;;;;;4917966;29;20384;-68
2022/05/04 00:23:33;;;;;;;8.00;4.45;;;14.60;73.00;;;;;;4935141;29;20580;-68
2022/05/04 00:26:00;;;;;;;6.88;4.38;;;14.50;73.20;;;;;;4934928;29;20051;-69
2022/05/04 00:28:25;;;;;;;9.43;4.90;;;14.40;73.50;;;;;;4934763;29;20038;-69
2022/05/04 00:30:52;;;;;;;6.70;4.70;;;14.40;73.60;;;;;;4935330;29;20040;-68
2022/05/04 00:33:18;;;;;;;5.72;4.13;;;14.40;73.90;;;;;;4935446;29;20404;-68
2022/05/04 00:35:43;;;;;;;7.32;4.93;;;14.30;74.20;;;;;;4935238;29;20033;-68
2022/05/04 00:38:09;;;;;;;8.80;5.97;;;14.30;74.20;;;;;;4927664;29;20036;-68
2022/05/04 00:40:34;;;;;;;7.53;4.85;;;14.30;74.30;;;;;;4935822;29;20036;-67
2022/05/04 00:43:00;;;;;;;6.10;4.70;;;14.20;74.20;;;;;;4934924;29;20510;-68
2022/05/04 00:45:25;;;;;;;6.75;5.03;;;14.20;74.40;;;;;;4935055;29;20023;-69
2022/05/04 00:47:50;;;;;;;7.32;4.40;;;14.20;74.60;;;;;;4932880;29;20463;-68
2022/05/04 00:50:16;;;;;;;6.15;4.75;;;14.20;74.70;;;;;;4934458;29;20042;-69
2022/05/04 00:52:43;;;;;;;7.00;4.65;;;14.20;74.80;;;;;;4927141;29;20027;-69
2022/05/04 00:55:10;;;;;;;6.35;4.63;;;14.10;74.80;;;;;;4934148;29;20031;-69
2022/05/04 01:00:23;;;;;;;7.60;4.75;;;14.10;75.10;;;;;;4935526;29;20082;-68
2022/05/04 01:02:49;;;;;;;8.93;5.15;;;14.00;75.10;;;;;;4932930;29;20050;-68
2022/05/04 01:05:14;;;;;;;7.70;4.15;;;14.00;75.30;;;;;;4935415;29;20024;-68
2022/05/04 01:07:42;;;;;;;8.32;4.80;;;14.00;75.50;;;;;;4933193;29;20048;-69
2022/05/04 01:10:09;;;;;;;8.52;5.00;;;13.90;75.60;;;;;;4935048;29;20040;-69
2022/05/04 01:12:36;;;;;;;6.30;4.22;;;13.90;75.70;;;;;;4933882;29;20035;-68
2022/05/04 01:15:03;;;;;;;6.63;5.10;;;13.90;75.80;;;;;;4934519;29;20062;-67
2022/05/04 01:17:28;;;;;;;6.80;5.28;;;13.90;75.80;;;;;;4933659;29;20035;-68
2022/05/04 01:19:57;;;;;;;9.10;5.05;;;13.80;75.90;;;;;;4933898;29;20054;-68
2022/05/04 01:22:24;;;;;;;7.22;4.90;;;13.80;76.10;;;;;;4933291;29;20084;-68
2022/05/04 01:24:49;;;;;;;6.53;4.97;;;13.80;76.20;;;;;;4935936;29;20035;-67
2022/05/04 01:27:15;;;;;;;6.57;5.05;;;13.70;76.80;;;;;;4935472;29;20039;-67
2022/05/04 01:29:40;;;;;;;8.40;5.00;;;13.70;76.40;;;;;;4939142;29;20051;-69
2022/05/04 01:32:07;;;;;;;7.60;4.85;;;13.70;76.40;;;;;;4940294;29;20058;-69
2022/05/04 01:34:32;;;;;;;6.50;4.95;;;13.60;76.60;;;;;;4934393;29;20020;-69
2022/05/04 01:36:58;;;;;;;10.52;6.50;;;13.60;76.70;;;;;;4921586;29;20038;-69
2022/05/04 01:39:23;;;;;;;6.53;4.90;;;13.50;76.90;;;;;;4929586;29;20122;-68
2022/05/04 01:42:13;;;;;;;8.88;5.15;;;13.50;77.00;;;;;;4938731;29;20043;-68
2022/05/04 01:44:40;;;;;;;7.50;5.15;;;13.40;77.10;;;;;;4938939;29;20038;-68
2022/05/04 01:47:07;;;;;;;7.03;4.78;;;13.40;77.20;;;;;;4939874;29;20039;-68
2022/05/04 01:49:32;;;;;;;6.90;5.28;;;13.40;77.30;;;;;;4924475;29;20043;-68
2022/05/04 01:51:58;;;;;;;7.57;5.20;;;13.30;77.60;;;;;;4940773;29;20031;-69
2022/05/04 01:54:26;;;;;;;7.68;5.05;;;13.30;77.80;;;;;;4933352;29;20047;-68
2022/05/04 01:56:52;;;;;;;7.15;5.10;;;13.30;77.90;;;;;;4934123;29;20027;-68
2022/05/04 01:59:18;;;;;;;7.43;5.13;;;13.30;78.00;;;;;;4933764;29;20031;-68
2022/05/04 02:01:44;;;;;;;9.10;5.40;;;13.30;78.30;;;;;;4933826;29;20392;-68
2022/05/04 02:04:09;;;;;;;7.60;5.20;;;13.20;78.50;;;;;;4933821;29;20032;-69
2022/05/04 02:06:36;;;;;;;9.90;5.35;;;13.20;79.20;;;;;;4923439;29;20087;-69
2022/05/04 02:09:02;;;;;;;8.07;6.18;;;13.20;78.90;;;;;;4933831;29;20115;-68
2022/05/04 02:11:28;;;;;;;10.52;6.10;;;13.20;79.10;;;;;;4930069;29;20766;-68
2022/05/04 02:13:54;;;;;;;8.07;5.35;;;13.20;79.20;;;;;;4916016;29;20031;-68
2022/05/04 02:16:19;;;;;;;8.05;5.03;;;13.10;79.30;;;;;;4933303;29;20028;-68
2022/05/04 02:18:45;;;;;;;8.45;6.05;;;13.10;79.40;;;;;;4934922;29;20032;-68
2022/05/04 02:21:10;;;;;;;10.32;5.85;;;13.10;79.60;;;;;;4917652;29;20035;-68
2022/05/04 02:23:36;;;;;;;7.45;5.32;;;13.10;79.70;;;;;;4915236;29;20055;-68
2022/05/04 02:26:02;;;;;;;8.95;5.32;;;13.00;80.00;;;;;;4929746;29;20047;-68
2022/05/04 02:28:28;;;;;;;11.30;5.70;;;12.90;79.90;;;;;;4934040;29;20094;-68
2022/05/04 02:30:54;;;;;;;10.38;5.70;;;12.90;80.00;;;;;;4926696;29;20044;-69
2022/05/04 02:33:19;;;;;;;8.70;6.20;;;12.90;80.10;;;;;;4916901;29;20475;-68
2022/05/04 02:38:49;;;;;;;7.85;6.13;;;12.90;80.10;;;;;;4912750;29;20040;-68
2022/05/04 02:41:14;;;;;;;10.73;6.00;;;12.90;80.10;;;;;;4911142;29;20032;-68
2022/05/04 02:43:39;;;;;;;6.60;5.68;;;12.90;80.20;;;;;;4917445;29;20126;-68
2022/05/04 02:46:19;;;;;;;8.23;6.47;;;12.90;80.50;;;;;;4932901;29;20024;-69
2022/05/04 02:48:46;;;;;;;8.48;5.95;;;12.80;80.70;;;;;;4934094;29;20145;-68
2022/05/04 02:51:12;;;;;;;7.80;5.88;;;12.80;80.80;;;;;;4934983;29;20036;-69
2022/05/04 02:53:37;;;;;;;8.10;5.70;;;12.70;80.90;;;;;;4937929;29;20030;-68
2022/05/04 02:56:05;;;;;;;8.20;6.15;;;12.80;81.20;;;;;;4924267;29;20028;-69
2022/05/04 02:58:30;;;;;;;8.45;6.05;;;12.80;81.10;;;;;;4937787;29;20032;-68
2022/05/04 03:02:26;;;;;;;9.57;6.50;;;12.70;81.20;;;;;;4936268;29;20058;-68
2022/05/04 03:03:56;;;;;;;8.20;6.28;;;12.70;81.50;;;;;;4937192;29;20127;-69
2022/05/04 03:06:22;;;;;;;8.23;5.78;;;12.70;81.60;;;;;;4919248;29;20123;-68
2022/05/04 03:08:48;;;;;;;8.27;5.78;;;12.70;81.80;;;;;;4937625;29;20137;-67
2022/05/04 03:13:59;;;;;;;8.50;5.93;;;12.60;81.70;;;;;;4927142;29;20174;-68
2022/05/04 03:16:25;;;;;;;12.35;6.20;;;12.70;81.40;;;;;;4936620;29;20036;-68
2022/05/04 03:18:50;;;;;;;10.55;6.60;;;12.60;81.50;;;;;;4935774;29;20051;-68
2022/05/04 03:21:16;;;;;;;10.50;6.00;;;12.60;81.80;;;;;;4936632;29;20071;-68
2022/05/04 03:23:41;;;;;;;8.52;6.13;;;12.60;81.90;;;;;;4936262;29;20058;-69
2022/05/04 03:26:10;;;;;;;10.57;6.25;;;12.60;82.20;;;;;;4904307;29;20028;-67
2022/05/04 03:28:35;;;;;;;12.73;6.50;;;12.60;82.40;;;;;;4932610;29;20174;-68
2022/05/04 03:31:01;;;;;;;8.25;6.43;;;12.60;82.60;;;;;;4935609;29;20123;-67
2022/05/04 03:33:26;;;;;;;11.65;5.97;;;12.50;82.50;;;;;;4937212;29;20110;-67
2022/05/04 03:35:52;;;;;;;8.18;5.90;;;12.50;82.50;;;;;;4935311;29;20035;-68
2022/05/04 03:38:17;;;;;;;8.88;6.07;;;12.50;82.50;;;;;;4937458;29;20106;-68
2022/05/04 03:40:43;;;;;;;10.30;5.80;;;12.50;82.80;;;;;;4934958;29;20027;-67
2022/05/04 03:43:09;;;;;;;9.77;6.40;;;12.50;83.10;;;;;;4935833;29;20107;-67
2022/05/04 03:45:34;;;;;;;14.48;6.30;;;12.60;83.20;;;;;;4936296;29;20027;-67
2022/05/04 03:48:00;;;;;;;9.82;6.57;;;12.60;83.60;;;;;;4933981;29;20040;-67
2022/05/04 03:50:25;;;;;;;10.32;7.03;;;12.60;83.20;;;;;;4935150;29;20052;-67
2022/05/04 03:52:51;;;;;;;12.63;5.95;;;12.60;83.50;;;;;;4936267;29;20032;-68
2022/05/04 03:55:16;;;;;;;10.10;6.20;;;12.60;83.60;;;;;;4935864;29;20036;-68
2022/05/04 03:57:42;;;;;;;9.35;6.53;;;12.50;83.80;;;;;;4936576;29;20531;-68
2022/05/04 04:00:09;;;;;;;8.90;6.00;;;12.60;84.00;;;;;;4928244;29;20384;-68
2022/05/04 04:02:35;;;;;;;11.35;6.50;;;12.60;83.90;;;;;;4927436;29;20089;-68
2022/05/04 04:05:01;;;;;;;8.40;6.28;;;12.60;84.00;;;;;;4925432;29;20027;-68
2022/05/04 04:07:26;;;;;;;11.43;6.57;;;12.60;84.00;;;;;;4936430;29;20059;-68
2022/05/04 04:09:52;;;;;;;8.75;6.05;;;12.70;84.10;;;;;;4934831;29;20067;-68
2022/05/04 04:12:17;;;;;;;10.02;6.22;;;12.70;84.10;;;;;;4931301;29;20386;-68
2022/05/04 04:14:43;;;;;;;9.20;6.70;;;12.70;84.10;;;;;;4934064;29;20031;-68
2022/05/04 04:17:08;;;;;;;9.05;6.63;;;12.80;84.00;;;;;;4936445;29;20027;-68
2022/05/04 04:19:34;;;;;;;9.88;6.80;;;12.80;83.70;;;;;;4929414;29;20028;-67
2022/05/04 04:21:59;;;;;;;8.90;5.93;;;12.90;83.70;;;;;;4930765;29;20443;-68
2022/05/04 04:24:25;;;;;;;11.38;5.82;;;12.90;83.80;;;;;;4934065;29;20452;-66
2022/05/04 04:26:51;;;;;;;9.38;6.85;;;12.90;83.80;;;;;;4936107;29;20034;-67
2022/05/04 04:29:16;;;;;;;10.13;6.32;;;13.00;84.10;;;;;;4931991;29;20118;-67
2022/05/04 04:31:42;;;;;;;9.90;6.85;;;13.00;84.20;;;;;;4936278;29;20031;-67
2022/05/04 04:34:08;;;;;;;8.38;6.53;;;13.10;84.30;;;;;;4934322;29;20034;-68
2022/05/04 04:36:34;;;;;;;7.63;6.18;;;13.10;84.10;;;;;;4934509;29;20047;-69
2022/05/04 04:38:59;;;;;;;9.70;6.30;;;13.20;84.10;;;;;;4935025;29;20031;-71
2022/05/04 04:41:26;;;;;;;14.07;7.32;;;13.30;84.10;;;;;;4933673;29;20023;-73
2022/05/04 04:43:51;;;;;;;9.70;6.85;;;13.40;83.90;;;;;;4927688;29;20032;-69
2022/05/04 04:46:17;;;;;;;9.18;6.88;;;13.40;83.70;;;;;;4933343;29;20036;-69
2022/05/04 04:48:42;;;;;;;11.13;7.45;;;13.40;83.50;;;;;;4935074;29;20039;-68
2022/05/04 04:51:08;;;;;;;9.95;6.30;;;13.50;83.40;;;;;;4934541;29;20090;-68
2022/05/04 04:53:33;;;;;;;10.98;7.55;;;13.50;83.30;;;;;;4931176;29;20042;-68
2022/05/04 04:55:59;;;;;;;9.95;7.25;;;13.60;83.30;;;;;;4929889;29;20072;-68
2022/05/04 04:58:25;;;;;;;10.27;6.72;;;13.60;83.30;;;;;;4933187;29;20027;-68
2022/05/04 05:00:51;;;;;;;9.65;7.13;;;13.70;83.00;;;;;;4929291;29;20059;-67
2022/05/04 05:03:17;;;;;;;12.07;7.03;;;13.80;82.90;;;;;;4916131;29;20062;-68
2022/05/04 05:05:43;;;;;;;10.45;6.82;;;13.70;82.90;;;;;;4924104;29;20460;-67
2022/05/04 05:08:10;;;;;;;10.02;6.80;;;13.80;82.90;;;;;;4930694;29;20518;-67
2022/05/04 05:10:36;;;;;;;10.63;7.05;;;13.90;82.90;;;;;;4924827;29;20051;-68
2022/05/04 05:13:03;;;;;;;9.95;6.80;;;13.90;82.90;;;;;;4934787;29;20067;-68
2022/05/04 05:18:12;;;;;;;9.73;6.75;;;14.00;83.00;;;;;;4929813;29;20027;-68
2022/05/04 05:20:38;;;;;;;9.48;7.00;;;14.10;82.90;;;;;;4928932;29;20543;-68
2022/05/04 05:23:04;;;;;;;9.98;7.00;;;14.10;82.80;;;;;;4929032;29;20127;-68
2022/05/04 05:25:31;;;;;;;10.35;6.75;;;14.20;82.70;;;;;;4925542;29;20600;-67
2022/05/04 05:27:57;;;;;;;10.70;7.68;;;14.20;82.50;;;;;;4932701;29;20059;-70
2022/05/04 05:30:22;;;;;;;10.68;7.15;;;14.20;82.20;;;;;;4928624;29;20443;-70
2022/05/04 05:32:48;;;;;;;12.27;7.43;;;14.30;82.70;;;;;;4928530;29;20067;-69
2022/05/04 05:35:13;;;;;;;9.63;7.45;;;14.40;82.20;;;;;;4921809;29;20036;-68
2022/05/04 05:37:39;;;;;;;10.80;7.93;;;14.50;82.10;;;;;;4932592;29;20027;-72
2022/05/04 05:40:05;;;;;;;8.90;6.75;;;14.50;81.70;;;;;;4932178;29;20055;-69
2022/05/04 05:42:32;;;;;;;11.60;7.72;;;14.60;81.90;;;;;;4915792;29;20028;-70
2022/05/04 05:44:58;;;;;;;10.02;6.95;;;14.70;81.50;;;;;;4932670;29;20039;-69
2022/05/04 05:47:23;;;;;;;11.02;7.45;;;14.80;81.70;;;;;;4928544;29;20372;-69
2022/05/04 05:49:48;;;;;;;12.65;7.47;;;14.90;81.20;;;;;;4921030;29;20039;-72
2022/05/04 05:52:14;;;;;;;10.48;8.02;;;14.90;81.10;;;;;;4932307;29;20071;-72
2022/05/04 05:54:40;;;;;;;12.25;8.57;;;15.00;80.80;;;;;;4913002;29;20028;-72
2022/05/04 05:57:06;;;;;;;10.75;6.97;;;15.10;80.70;;;;;;4929132;29;20391;-72
2022/05/04 05:59:31;;;;;;;12.45;7.90;;;15.20;80.60;;;;;;4923857;29;20028;-72
2022/05/04 06:01:57;;;;;;;17.10;8.32;;;15.30;80.10;;;;;;4915654;29;20032;-71
2022/05/04 06:04:22;;;;;;;9.48;7.13;;;15.30;80.20;;;;;;4929471;29;20032;-72
2022/05/04 06:06:48;;;;;;;10.10;7.65;;;15.40;80.20;;;;;;4933155;29;20487;-72
2022/05/04 06:09:13;;;;;;;9.07;6.88;;;15.60;80.30;;;;;;4932092;29;20042;-72
2022/05/04 06:11:39;;;;;;;8.73;6.80;;;15.70;79.90;;;;;;4930765;29;20043;-72
2022/05/04 06:14:04;;;;;;;10.10;6.97;;;15.80;79.60;;;;;;4929042;29;20036;-72
2022/05/04 06:16:30;;;;;;;10.27;7.05;;;16.00;79.20;;;;;;4929770;29;20034;-70
2022/05/04 06:18:58;;;;;;;11.90;7.18;;;16.10;78.90;;;;;;4933462;29;20502;-70
2022/05/04 06:21:23;;;;;;;13.68;7.70;;;16.20;78.30;;;;;;4929622;29;20052;-70
2022/05/04 06:23:49;;;;;;;11.50;7.70;;;16.20;77.60;;;;;;4931323;29;20168;-70
2022/05/04 06:26:15;;;;;;;10.60;7.32;;;16.30;77.00;;;;;;4928502;29;20034;-70
2022/05/04 06:28:40;;;;;;;12.27;7.72;;;16.30;76.80;;;;;;4929192;29;20031;-70
2022/05/04 06:34:10;;;;;;;8.85;6.88;;;16.40;76.80;;;;;;4918715;29;20107;-70
2022/05/04 06:36:38;;;;;;;10.57;6.38;;;16.50;76.60;;;;;;4938024;29;20438;-69
2022/05/04 06:39:03;;;;;;;9.77;6.65;;;16.60;76.50;;;;;;4926452;29;20032;-69
2022/05/04 06:41:30;;;;;;;15.77;6.10;;;16.70;76.50;;;;;;4926310;29;20036;-71
2022/05/04 06:43:55;;;;;;;12.05;6.57;;;16.80;76.30;;;;;;4915299;29;20020;-70
2022/05/04 06:46:21;;;;;;;13.88;5.93;;;16.90;75.50;;;;;;4926737;29;20515;-70
2022/05/04 06:48:46;;;;;;;10.23;6.50;;;16.90;75.20;;;;;;4926844;29;20027;-70
2022/05/04 06:51:12;;;;;;;7.85;5.53;;;17.00;74.90;;;;;;4928319;29;20036;-70
2022/05/04 06:53:37;;;;;;;9.32;5.97;;;17.00;74.30;;;;;;4925846;29;20028;-70
2022/05/04 06:56:03;;;;;;;7.57;6.13;;;17.10;73.70;;;;;;4929988;29;20040;-70
2022/05/04 06:58:29;;;;;;;9.70;6.13;;;17.10;73.80;;;;;;4918709;29;20028;-70
2022/05/04 07:00:54;;;;;;;9.80;6.95;;;17.10;73.80;;;;;;4926909;29;20035;-70
2022/05/04 07:03:21;;;;;;;9.27;6.22;;;17.20;73.50;;;;;;4932080;29;20396;-70
2022/05/04 07:05:47;;;;;;;8.75;5.85;;;17.20;73.00;;;;;;4927528;29;20176;-70
2022/05/04 07:08:13;;;;;;;9.55;6.32;;;17.20;72.50;;;;;;4920753;29;20155;-69
2022/05/04 07:10:38;;;;;;;9.95;6.40;;;17.30;72.40;;;;;;4934318;29;20130;-70
2022/05/04 07:13:04;;;;;;;8.40;5.55;;;17.30;71.90;;;;;;4918314;29;20028;-71
2022/05/04 07:15:29;;;;;;;10.95;6.70;;;17.30;72.30;;;;;;4928423;29;20047;-70
2022/05/04 07:17:56;;;;;;;8.43;5.90;;;17.40;72.00;;;;;;4918220;29;20024;-70
2022/05/04 07:20:21;;;;;;;8.38;5.88;;;17.50;71.80;;;;;;4927056;29;20107;-70
2022/05/04 07:22:47;;;;;;;10.90;6.30;;;17.50;71.20;;;;;;4918615;29;20104;-69
2022/05/04 07:25:12;;;;;;;10.20;6.80;;;17.60;71.30;;;;;;4926602;29;20043;-70
2022/05/04 07:27:38;;;;;;;8.00;5.70;;;17.60;71.20;;;;;;4935022;29;20039;-70
2022/05/04 07:30:04;;;;;;;20.08;6.10;;;17.70;71.20;;;;;;4931111;29;20569;-70
2022/05/04 07:32:29;;;;;;;7.57;5.70;;;17.80;71.30;;;;;;4917724;29;20071;-69
2022/05/04 07:34:55;;;;;;;10.95;6.40;;;17.90;70.70;;;;;;4924930;29;20036;-70
2022/05/04 07:37:20;;;;;;;14.98;5.88;;;18.00;70.50;;;;;;4935450;29;20027;-70
2022/05/04 07:42:30;;;;;;;11.80;6.30;;;18.20;70.30;;;;;;4933152;29;20031;-70
2022/05/04 07:45:04;;;;;;;10.27;5.88;;;18.20;70.00;;;;;;4928152;29;20032;-69
2022/05/04 07:47:32;;;;;;;9.13;5.85;;;18.30;69.70;;;;;;4916047;29;20043;-71
2022/05/04 07:49:58;;;;;;;23.85;8.60;;;18.30;69.10;;;;;;4927326;29;20050;-70
2022/05/04 07:52:24;;;;;;;15.48;6.07;;;18.40;69.10;;;;;;4918562;29;20035;-70
2022/05/04 07:54:50;;;;;;;8.65;5.40;;;18.40;68.60;;;;;;4934975;29;20129;-69
2022/05/04 07:57:15;;;;;;;9.10;5.25;;;18.40;68.60;;;;;;4922796;29;20032;-71
2022/05/04 07:59:41;;;;;;;6.80;4.80;;;18.40;68.50;;;;;;4922437;29;20035;-70
2022/05/04 08:04:51;;;;;;;8.35;4.93;;;18.50;67.90;;;;;;4934129;29;20063;-70
2022/05/04 08:07:17;;;;;;;6.43;4.82;;;18.50;67.00;;;;;;4935719;29;20039;-69
2022/05/04 08:09:43;;;;;;;6.80;4.60;;;18.40;65.80;;;;;;4933528;29;20040;-70
2022/05/04 08:12:11;;;;;;;7.95;4.88;;;18.30;65.80;;;;;;4918452;29;20059;-70
2022/05/04 08:14:37;;;;;;;7.55;4.30;;;18.30;66.40;;;;;;4933598;29;20038;-70
2022/05/04 08:17:02;;;;;;;5.18;3.95;;;18.40;66.10;;;;;;4924991;29;20032;-69
2022/05/04 08:19:28;;;;;;;8.30;4.57;;;18.40;66.20;;;;;;4931607;29;20107;-69
2022/05/04 08:21:54;;;;;;;8.68;4.97;;;18.50;65.80;;;;;;4918963;29;20404;-68
2022/05/04 08:24:20;;;;;;;7.03;4.43;;;18.40;65.40;;;;;;4933901;29;20082;-69
2022/05/04 08:26:46;;;;;;;7.07;4.13;;;18.40;65.50;;;;;;4927171;29;20484;-71
2022/05/04 08:29:14;;;;;;;8.55;4.50;;;18.50;65.50;;;;;;4931898;29;20517;-73
2022/05/04 08:31:40;;;;;;;8.55;4.70;;;18.40;65.50;;;;;;4935110;29;20027;-72
2022/05/04 08:34:06;;;;;;;9.02;4.18;;;18.50;65.00;;;;;;4928030;29;20032;-72
2022/05/04 08:36:32;;;;;;;7.18;3.92;;;18.50;65.00;;;;;;4933657;29;20083;-73
2022/05/04 08:38:57;;;;;;;7.30;4.03;;;18.60;64.70;;;;;;4935428;29;20028;-72
2022/05/04 08:41:23;;;;;;;6.90;3.90;;;18.60;64.60;;;;;;4929950;29;20027;-75
2022/05/04 08:43:50;;;;;;;5.55;3.45;;;18.70;64.50;;;;;;4934024;29;20090;-74
2022/05/04 08:46:18;;;;;;;5.35;3.55;;;18.70;64.20;;;;;;4927551;29;20028;-73
2022/05/04 08:48:44;;;;;;;7.38;3.75;;;18.80;64.30;;;;;;4913495;29;20032;-74
2022/05/04 08:51:10;;;;;;;7.45;3.88;;;18.80;63.60;;;;;;4931885;29;20059;-74
2022/05/04 08:53:37;;;;;;;6.45;3.63;;;18.80;63.50;;;;;;4932223;29;20087;-73
2022/05/04 08:56:02;;;;;;;7.95;3.55;;;18.90;63.50;;;;;;4926205;29;20559;-73
2022/05/04 08:58:28;;;;;;;5.55;3.95;;;18.90;63.30;;;;;;4921368;29;20072;-74
2022/05/04 09:00:54;;;;;;;6.47;3.92;;;19.00;63.20;;;;;;4933451;29;20106;-73
2022/05/04 09:03:21;;;;;;;5.47;3.42;;;19.00;62.30;;;;;;4919322;29;20028;-73
2022/05/04 09:05:48;;;;;;;7.95;3.42;;;19.00;61.80;;;;;;4931013;29;20047;-73
2022/05/04 09:08:13;;;;;;;4.90;3.25;;;19.10;61.80;;;;;;4917983;29;20079;-72
2022/05/04 09:10:43;;;;;;;5.75;3.35;;;19.20;62.20;;;;;;4931582;29;20036;-73
2022/05/04 09:13:10;;;;;;;7.95;3.75;;;19.30;62.40;;;;;;4928229;29;20028;-72
2022/05/04 09:15:38;;;;;;;5.90;3.78;;;19.50;62.60;;;;;;4925340;29;20115;-74
2022/05/04 09:18:16;;;;;;;6.68;4.47;;;19.70;62.20;;;;;;4916402;29;20028;-74
2022/05/04 09:20:49;;;;;;;6.70;3.92;;;19.70;61.80;;;;;;4929826;29;20028;-75
2022/05/04 09:23:32;;;;;;;6.30;4.30;;;19.90;61.50;;;;;;4929130;29;20048;-75
2022/05/04 09:26:14;;;;;;;7.30;4.40;;;20.00;62.00;;;;;;4921819;29;20041;-75
2022/05/04 09:28:39;;;;;;;8.65;4.15;;;20.10;61.30;;;;;;4934203;29;20099;-75
2022/05/04 09:31:07;;;;;;;7.65;3.85;;;20.30;60.90;;;;;;4938038;29;20502;-75
2022/05/04 09:33:37;;;;;;;5.85;3.40;;;20.40;60.80;;;;;;4916182;29;20033;-75
2022/05/04 09:36:03;;;;;;;5.80;4.38;;;20.50;59.30;;;;;;4931519;29;20047;-75
2022/05/04 09:46:52;;;;;;;5.90;3.53;;;20.30;59.10;;;;;;4915889;29;20055;-75
2022/05/04 09:49:18;;;;;;;4.70;3.28;;;20.30;59.90;;;;;;4915524;29;20047;-75
2022/05/04 09:51:51;;;;;;;9.10;3.85;;;20.40;59.90;;;;;;4915942;29;20028;-75
2022/05/04 09:54:20;;;;;;;4.90;3.33;;;20.50;59.80;;;;;;4915738;29;20384;-76
2022/05/04 09:56:48;;;;;;;6.20;4.03;;;20.70;60.10;;;;;;4916589;29;20031;-74
2022/05/04 09:59:15;;;;;;;5.45;3.80;;;20.70;59.50;;;;;;4916512;29;20077;-75
2022/05/04 10:01:42;;;;;;;7.15;3.55;;;20.90;59.40;;;;;;4934855;29;20035;-75
2022/05/04 10:04:08;;;;;;;5.55;3.63;;;21.00;59.00;;;;;;4932996;29;20460;-75
2022/05/04 10:06:35;;;;;;;5.45;3.58;;;21.00;58.60;;;;;;4916434;29;20040;-75
2022/05/04 10:09:02;;;;;;;5.28;3.53;;;21.10;58.80;;;;;;4916386;29;20024;-75
2022/05/04 10:11:30;;;;;;;5.20;3.55;;;21.20;58.60;;;;;;4934700;29;20035;-75
2022/05/04 10:14:03;;;;;;;6.32;3.55;;;21.20;58.20;;;;;;4917813;29;20020;-74
2022/05/04 10:16:41;;;;;;;9.25;3.65;;;21.20;57.50;;;;;;4933704;29;20042;-75
2022/05/04 10:19:13;;;;;;;7.93;3.90;;;21.20;57.90;;;;;;4932707;29;20130;-75
2022/05/04 10:21:41;;;;;;;6.00;3.65;;;21.30;57.80;;;;;;4919595;29;20118;-75
2022/05/04 10:24:08;;;;;;;8.60;3.38;;;21.40;57.90;;;;;;4916001;29;20087;-75
2022/05/04 10:26:35;;;;;;;4.93;3.55;;;21.50;57.60;;;;;;4915289;29;20516;-75
2022/05/04 10:32:07;;;;;;;5.68;3.90;;;21.60;57.40;;;;;;4947889;29;20082;-74
2022/05/04 10:34:33;;;;;;;5.35;3.65;;;21.60;57.30;;;;;;4931636;29;20034;-73
2022/05/04 10:36:58;;;;;;;4.88;3.28;;;21.60;57.10;;;;;;4935489;29;20031;-75
2022/05/04 10:39:24;;;;;;;3.97;2.70;;;21.70;57.10;;;;;;4934212;29;20019;-75
2022/05/04 10:41:50;;;;;;;5.03;3.30;;;21.70;57.20;;;;;;4917283;29;20130;-75
2022/05/04 10:44:17;;;;;;;6.78;3.72;;;21.80;57.30;;;;;;4932720;29;20153;-75
2022/05/04 10:46:46;;;;;;;5.30;3.20;;;21.80;57.10;;;;;;4934343;29;20036;-75
2022/05/04 10:49:14;;;;;;;4.80;3.33;;;21.80;57.10;;;;;;4917470;29;20059;-75
2022/05/04 10:51:41;;;;;;;5.00;3.83;;;21.80;57.30;;;;;;4917081;29;20031;-74
2022/05/04 10:54:21;;;;;;;5.63;4.00;;;21.80;57.00;;;;;;4915780;29;20364;-75
2022/05/04 10:56:49;;;;;;;6.22;3.75;;;21.70;57.00;;;;;;4934607;29;20399;-75
2022/05/04 10:59:30;;;;;;;6.43;3.67;;;21.80;57.00;;;;;;4933432;29;20028;-75
2022/05/04 11:02:04;;;;;;;6.28;3.75;;;21.70;56.90;;;;;;4934827;29;20387;-74
2022/05/04 11:04:29;;;;;;;5.82;3.58;;;21.70;57.00;;;;;;4915792;29;20028;-74
2022/05/04 11:07:02;;;;;;;6.47;3.80;;;21.70;57.40;;;;;;4933220;29;20623;-74
2022/05/04 11:09:32;;;;;;;5.72;4.18;;;21.70;56.90;;;;;;4917797;29;20487;-74
2022/05/04 11:12:00;;;;;;;6.22;3.90;;;21.70;56.70;;;;;;4919644;29;20619;-75
2022/05/04 11:14:26;;;;;;;5.15;3.75;;;21.70;56.50;;;;;;4936522;29;20024;-75
2022/05/04 11:16:54;;;;;;;5.70;4.43;;;21.70;56.30;;;;;;4937720;29;20420;-74
2022/05/04 11:19:24;;;;;;;4.93;3.92;;;21.70;55.40;;;;;;4936396;29;20031;-75
2022/05/04 11:21:49;;;;;;;6.13;4.22;;;21.60;55.90;;;;;;4937849;29;20119;-75
2022/05/04 11:24:16;;;;;;;5.57;3.63;;;21.70;56.20;;;;;;4931952;29;20571;-75
2022/05/04 11:26:43;;;;;;;4.55;3.63;;;21.80;56.40;;;;;;4918079;29;20032;-74
2022/05/04 11:29:30;;;;;;;6.00;3.83;;;21.80;56.80;;;;;;4918324;29;20031;-74
2022/05/04 11:32:02;;;;;;;5.32;3.80;;;22.00;56.70;;;;;;4917176;29;20567;-74
2022/05/04 11:34:31;;;;;;;6.28;4.30;;;22.10;56.50;;;;;;4921148;29;20027;-75
2022/05/04 11:36:58;;;;;;;6.25;4.05;;;22.10;55.30;;;;;;4934938;29;20500;-74
2022/05/04 11:39:26;;;;;;;4.72;3.35;;;22.10;55.40;;;;;;4913329;29;20579;-76
2022/05/04 11:41:55;;;;;;;7.03;3.63;;;22.10;55.80;;;;;;4919492;29;20087;-75
2022/05/04 11:44:23;;;;;;;6.25;4.15;;;22.10;56.00;;;;;;4930151;29;20039;-75
2022/05/04 11:46:50;;;;;;;6.05;4.50;;;22.10;55.80;;;;;;4919173;29;20115;-77
2022/05/04 11:49:17;;;;;;;5.50;4.60;;;22.10;55.50;;;;;;4926390;29;20048;-70
2022/05/04 11:51:43;;;;;;;6.15;3.95;;;22.20;55.40;;;;;;4928256;29;20091;-69
2022/05/04 11:54:08;;;;;;;6.20;3.40;;;22.20;54.70;;;;;;4931408;29;20036;-70
2022/05/04 11:56:35;;;;;;;6.05;4.00;;;22.10;55.00;;;;;;4935053;29;20027;-69
2022/05/04 11:59:01;;;;;;;5.28;4.15;;;22.10;54.30;;;;;;4927045;29;20024;-69
2022/05/04 12:01:27;;;;;;;6.57;4.30;;;22.00;54.30;;;;;;4924993;29;20031;-70
2022/05/04 12:03:53;;;;;;;6.97;4.35;;;22.00;54.80;;;;;;4926847;29;20494;-69
2022/05/04 12:06:20;;;;;;;8.60;4.40;;;22.00;54.50;;;;;;4933139;29;20054;-67
2022/05/04 12:08:46;;;;;;;8.80;4.00;;;22.00;54.40;;;;;;4935677;29;20361;-69
2022/05/04 12:11:11;;;;;;;7.72;3.80;;;22.10;54.80;;;;;;4934571;29;20103;-69
2022/05/04 12:13:41;;;;;;;6.25;4.05;;;22.10;54.90;;;;;;4932892;29;20115;-69
2022/05/04 12:16:09;;;;;;;5.07;3.83;;;22.10;55.00;;;;;;4926097;29;20028;-69
2022/05/04 12:18:37;;;;;;;4.60;3.72;;;22.20;55.10;;;;;;4910922;29;20032;-68
2022/05/04 12:21:08;;;;;;;6.40;3.70;;;22.30;54.80;;;;;;4931077;29;20040;-69
2022/05/04 12:23:36;;;;;;;6.85;4.40;;;22.30;54.80;;;;;;4934357;29;20045;-69
2022/05/04 12:26:03;;;;;;;4.82;3.78;;;22.30;54.40;;;;;;4924898;29;20042;-69
2022/05/04 12:28:28;;;;;;;5.68;4.28;;;22.30;54.40;;;;;;4928426;29;20527;-69
2022/05/04 12:33:38;;;;;;;6.30;3.50;;;22.20;53.80;;;;;;4928004;29;20063;-69
2022/05/04 12:36:09;;;;;;;6.55;4.28;;;22.20;54.20;;;;;;4931460;29;20432;-69
2022/05/04 12:38:36;;;;;;;6.60;4.25;;;22.10;54.00;;;;;;4934369;29;20020;-69
2022/05/04 12:41:06;;;;;;;7.13;4.20;;;22.10;53.80;;;;;;4934154;29;20035;-68
2022/05/04 12:43:34;;;;;;;6.70;3.60;;;22.10;54.00;;;;;;4928145;29;20020;-68
2022/05/04 12:46:01;;;;;;;6.18;4.10;;;22.10;54.00;;;;;;4931855;29;20035;-69
2022/05/04 12:48:27;;;;;;;6.30;4.32;;;22.20;53.90;;;;;;4928837;29;20024;-69
2022/05/04 12:50:57;;;;;;;4.72;3.70;;;22.30;53.60;;;;;;4916416;29;20099;-69
2022/05/04 12:53:24;;;;;;;4.70;3.88;;;22.40;53.60;;;;;;4928355;29;20039;-70
2022/05/04 12:58:34;;;;;;;5.20;3.88;;;22.50;53.70;;;;;;4934902;29;20434;-69
2022/05/04 13:01:00;;;;;;;5.63;3.80;;;22.50;53.50;;;;;;4918821;29;20044;-69
2022/05/04 13:03:26;;;;;;;8.40;4.38;;;22.40;53.30;;;;;;4923112;29;20035;-69
2022/05/04 13:05:51;;;;;;;8.32;4.00;;;22.40;53.10;;;;;;4934430;29;20035;-69
2022/05/04 13:08:17;;;;;;;8.50;3.63;;;22.40;53.30;;;;;;4929920;29;20016;-69
2022/05/04 13:10:42;;;;;;;5.82;3.50;;;22.50;53.90;;;;;;4932302;29;20038;-69
2022/05/04 13:13:08;;;;;;;5.38;4.03;;;22.50;54.00;;;;;;4915327;29;20027;-69
2022/05/04 13:15:34;;;;;;;6.05;3.88;;;22.50;53.50;;;;;;4932944;29;20471;-69
2022/05/04 13:18:00;;;;;;;4.60;3.28;;;22.60;53.30;;;;;;4927234;29;20028;-69
2022/05/04 13:20:25;;;;;;;5.25;3.88;;;22.70;53.40;;;;;;4934091;29;20115;-69